Time;durP1;ratioP1;P1;durP2;ratioP2;P2;SDS_P1;SDS_P2;PMS_P1;PMS_P2;Temp;Humidity;BMP_temperature;BMP_pressure;BME280_temperature;BME280_humidity;BME280_pressure;Samples;Min_cycle;Max_cycle;Signal;HPM_P1;HPM_P2
2022/01/30 00:00:08;;;;;;;7.27;7.07;;;19.70;65.10;;;;;;5033215;28;20861;-45
2022/01/30 00:02:35;;;;;;;7.40;7.10;;;19.90;64.80;;;;;;5033116;28;20449;-45
2022/01/30 00:05:01;;;;;;;7.13;6.80;;;20.10;63.50;;;;;;5070934;28;20443;-45
2022/01/30 00:07:29;;;;;;;7.20;6.70;;;20.10;62.60;;;;;;5072740;28;20464;-46
2022/01/30 00:09:56;;;;;;;7.63;7.33;;;20.20;62.60;;;;;;5073222;28;20804;-45
2022/01/30 00:12:31;;;;;;;7.50;7.20;;;20.10;61.80;;;;;;5072943;28;20443;-45
2022/01/30 00:14:58;;;;;;;7.10;6.90;;;20.00;61.90;;;;;;5054424;28;20447;-45
2022/01/30 00:17:33;;;;;;;7.03;6.70;;;20.00;61.60;;;;;;5052598;28;20444;-45
2022/01/30 00:20:03;;;;;;;7.67;7.37;;;20.10;61.60;;;;;;5052893;28;20451;-45
2022/01/30 00:22:44;;;;;;;7.17;6.87;;;20.00;61.00;;;;;;5052785;28;20631;-45
2022/01/30 00:25:15;;;;;;;8.33;7.93;;;19.90;60.90;;;;;;5052779;28;20463;-46
2022/01/30 00:27:48;;;;;;;7.73;7.43;;;20.00;61.30;;;;;;5052658;28;20472;-45
2022/01/30 00:30:17;;;;;;;7.37;7.17;;;20.20;61.50;;;;;;5052736;28;20448;-46
2022/01/30 00:32:44;;;;;;;6.93;6.57;;;20.30;60.60;;;;;;5052559;28;20448;-45
2022/01/30 00:35:11;;;;;;;7.67;7.17;;;20.40;60.30;;;;;;5071504;28;20874;-45
2022/01/30 00:37:42;;;;;;;7.40;7.00;;;20.40;60.00;;;;;;5072294;28;20487;-45
2022/01/30 00:40:11;;;;;;;7.60;7.20;;;20.40;59.30;;;;;;5072333;28;20592;-45
2022/01/30 00:42:37;;;;;;;7.57;7.33;;;20.30;59.40;;;;;;5072368;28;20448;-45
2022/01/30 00:45:05;;;;;;;7.97;7.50;;;20.30;58.90;;;;;;5053853;28;21095;-45
2022/01/30 00:47:32;;;;;;;7.23;6.93;;;20.30;59.00;;;;;;5052439;28;20468;-45
2022/01/30 00:49:59;;;;;;;7.70;7.30;;;20.30;58.70;;;;;;5052267;28;20450;-45
2022/01/30 00:52:25;;;;;;;7.73;7.40;;;20.20;58.70;;;;;;5052196;28;20444;-44
2022/01/30 00:54:54;;;;;;;7.57;7.17;;;20.20;58.80;;;;;;5052310;28;20455;-45
2022/01/30 00:57:20;;;;;;;7.37;7.07;;;20.20;58.90;;;;;;5051884;28;20444;-44
2022/01/30 00:59:48;;;;;;;8.20;7.70;;;20.20;58.80;;;;;;5051029;28;20503;-45
2022/01/30 01:02:15;;;;;;;7.53;7.23;;;20.10;58.70;;;;;;5051993;28;20455;-45
2022/01/30 01:04:42;;;;;;;6.70;6.50;;;20.30;59.20;;;;;;5066314;28;20450;-45
2022/01/30 01:07:15;;;;;;;7.50;7.10;;;20.50;58.80;;;;;;5071648;28;20447;-45
2022/01/30 01:09:43;;;;;;;7.30;7.03;;;20.60;58.30;;;;;;5072025;28;20586;-45
2022/01/30 01:12:39;;;;;;;8.00;7.70;;;20.60;58.30;;;;;;5071958;28;20447;-45
2022/01/30 01:20:59;;;;;;;7.70;7.40;;;20.50;57.70;;;;;;5051842;28;20932;-45
2022/01/30 01:23:28;;;;;;;7.63;7.23;;;20.40;57.20;;;;;;5055302;28;20443;-45
2022/01/30 01:25:56;;;;;;;7.47;7.17;;;20.40;57.60;;;;;;5071598;28;20447;-45
2022/01/30 01:28:24;;;;;;;7.70;7.47;;;20.30;57.50;;;;;;5071495;28;20474;-46
2022/01/30 01:30:51;;;;;;;6.83;6.53;;;20.30;57.60;;;;;;5071871;28;20442;-45
2022/01/30 01:33:19;;;;;;;7.50;7.10;;;20.30;57.40;;;;;;5069140;28;20932;-45
2022/01/30 01:35:46;;;;;;;7.27;6.97;;;20.30;57.50;;;;;;5051476;28;20502;-44
2022/01/30 01:38:15;;;;;;;8.23;7.93;;;20.40;57.70;;;;;;5051394;28;20491;-45
2022/01/30 01:40:49;;;;;;;7.50;7.30;;;20.60;57.20;;;;;;5051650;28;20450;-47
2022/01/30 01:43:16;;;;;;;7.37;7.07;;;20.70;57.10;;;;;;5053083;28;20505;-44
2022/01/30 01:45:46;;;;;;;7.20;6.90;;;20.70;56.80;;;;;;5070857;28;20439;-45
2022/01/30 01:48:14;;;;;;;7.57;7.27;;;20.70;56.80;;;;;;5071435;28;20474;-46
2022/01/30 01:50:45;;;;;;;8.03;7.63;;;20.60;56.80;;;;;;5071499;28;20447;-46
2022/01/30 01:53:15;;;;;;;7.53;7.23;;;20.50;56.70;;;;;;5070858;28;20493;-45
2022/01/30 01:55:44;;;;;;;7.93;7.53;;;20.50;56.80;;;;;;5071295;28;20439;-45
2022/01/30 01:58:11;;;;;;;7.63;7.23;;;20.50;56.60;;;;;;5071114;28;20485;-45
2022/01/30 02:00:38;;;;;;;7.50;7.20;;;20.40;56.90;;;;;;5071434;28;20820;-45
2022/01/30 02:03:06;;;;;;;6.67;6.43;;;20.30;56.80;;;;;;5071085;28;20447;-48
2022/01/30 02:05:35;;;;;;;8.80;8.10;;;20.30;57.00;;;;;;5071203;28;20454;-45
2022/01/30 02:10:57;;;;;;;8.40;8.00;;;20.60;57.50;;;;;;5071570;28;20431;-47
2022/01/30 02:25:03;;;;;;;8.60;8.00;;;20.50;56.40;;;;;;5055035;28;20411;-48
2022/01/30 02:27:34;;;;;;;8.50;8.20;;;20.50;56.40;;;;;;5054580;28;20554;-47
2022/01/30 02:30:06;;;;;;;7.40;7.00;;;20.50;56.50;;;;;;5054980;28;20463;-49
2022/01/30 02:32:33;;;;;;;7.50;7.30;;;20.50;56.50;;;;;;5059577;28;20940;-47
2022/01/30 02:34:59;;;;;;;9.80;9.30;;;20.40;56.60;;;;;;5074714;28;20445;-47
2022/01/30 02:37:27;;;;;;;7.97;7.67;;;20.50;57.10;;;;;;5074562;28;20815;-47
2022/01/30 02:39:54;;;;;;;7.20;7.00;;;20.60;57.20;;;;;;5074610;28;20846;-45
2022/01/30 02:42:23;;;;;;;7.67;7.07;;;20.80;56.50;;;;;;5074309;28;20450;-45
2022/01/30 02:44:54;;;;;;;8.60;8.13;;;20.90;56.10;;;;;;5074599;28;20450;-50
2022/01/30 02:47:38;;;;;;;7.70;7.40;;;20.90;55.90;;;;;;5074399;28;20447;-49
2022/01/30 02:50:14;;;;;;;8.00;7.70;;;20.90;55.70;;;;;;5074501;28;20534;-49
2022/01/30 02:52:44;;;;;;;8.50;8.10;;;20.90;56.00;;;;;;5068827;28;20443;-50
2022/01/30 02:55:13;;;;;;;7.93;7.43;;;20.90;55.90;;;;;;5054332;28;20448;-49
2022/01/30 02:57:40;;;;;;;7.83;7.43;;;20.80;55.70;;;;;;5054114;28;21087;-45
2022/01/30 03:00:09;;;;;;;8.10;7.80;;;20.80;55.70;;;;;;5054318;28;20550;-46
2022/01/30 03:02:36;;;;;;;8.70;8.10;;;20.80;55.70;;;;;;5054585;28;20498;-49
2022/01/30 03:05:04;;;;;;;7.63;7.43;;;20.80;55.90;;;;;;5054411;28;20447;-44
2022/01/30 03:07:31;;;;;;;7.40;7.20;;;20.70;55.80;;;;;;5053884;28;20999;-46
2022/01/30 03:09:59;;;;;;;7.33;7.13;;;20.70;55.90;;;;;;5054159;28;20444;-47
2022/01/30 03:12:26;;;;;;;8.30;7.90;;;20.60;55.90;;;;;;5057303;28;20440;-45
2022/01/30 03:14:52;;;;;;;7.67;7.27;;;20.60;56.20;;;;;;5074041;28;20446;-47
2022/01/30 03:17:19;;;;;;;7.70;7.40;;;20.60;56.30;;;;;;5073610;28;20447;-49
2022/01/30 03:19:46;;;;;;;7.27;6.97;;;20.80;56.30;;;;;;5073989;28;20483;-48
2022/01/30 03:22:13;;;;;;;7.87;7.37;;;20.90;55.60;;;;;;5073282;28;20454;-47
2022/01/30 03:24:39;;;;;;;7.40;7.10;;;21.00;55.30;;;;;;5073053;28;20454;-46
2022/01/30 03:27:11;;;;;;;7.70;7.40;;;21.00;55.20;;;;;;5056947;28;20802;-45
2022/01/30 03:29:38;;;;;;;6.87;6.67;;;20.90;54.70;;;;;;5053983;28;20444;-46
2022/01/30 03:32:06;;;;;;;7.13;6.90;;;21.00;54.90;;;;;;5053701;28;20448;-46
2022/01/30 03:34:33;;;;;;;8.17;7.70;;;21.00;54.90;;;;;;5033726;28;20445;-48
2022/01/30 03:37:00;;;;;;;7.23;6.93;;;20.90;54.90;;;;;;5033460;28;20822;-44
2022/01/30 03:39:27;;;;;;;7.90;7.50;;;20.80;55.00;;;;;;5033471;28;21005;-45
2022/01/30 03:41:54;;;;;;;6.97;6.67;;;20.80;54.80;;;;;;5033557;28;20878;-45
2022/01/30 03:44:22;;;;;;;8.00;7.60;;;20.80;55.00;;;;;;5069162;28;20446;-46
2022/01/30 03:46:49;;;;;;;7.40;7.13;;;20.70;55.00;;;;;;5073363;28;20447;-48
2022/01/30 03:49:15;;;;;;;6.90;6.60;;;20.70;54.90;;;;;;5073389;28;20464;-45
2022/01/30 03:51:42;;;;;;;7.07;6.57;;;20.70;55.10;;;;;;5073497;28;20454;-45
2022/01/30 03:54:09;;;;;;;7.03;6.83;;;20.90;55.30;;;;;;5057076;28;20457;-45
2022/01/30 03:56:36;;;;;;;8.80;8.30;;;21.30;55.10;;;;;;5053027;28;20448;-45
2022/01/30 03:59:02;;;;;;;8.13;7.83;;;21.60;54.50;;;;;;5053106;28;20847;-45
2022/01/30 04:01:30;;;;;;;7.60;7.30;;;22.00;53.90;;;;;;5053245;28;20444;-45
2022/01/30 04:03:58;;;;;;;7.67;7.27;;;22.20;52.90;;;;;;5067023;28;20447;-46
2022/01/30 04:06:25;;;;;;;8.30;7.80;;;22.20;52.20;;;;;;5072858;28;20447;-45
2022/01/30 04:08:52;;;;;;;8.10;7.63;;;22.30;52.40;;;;;;5073037;28;20460;-46
2022/01/30 04:11:20;;;;;;;7.90;7.60;;;22.30;52.00;;;;;;5073028;28;20451;-45
2022/01/30 04:13:47;;;;;;;7.83;7.63;;;22.20;51.90;;;;;;5072199;28;20447;-47
2022/01/30 04:16:14;;;;;;;7.50;7.10;;;22.20;51.50;;;;;;5072635;28;20446;-47
2022/01/30 04:18:42;;;;;;;7.50;7.10;;;22.10;51.20;;;;;;5072499;28;20494;-48
2022/01/30 04:21:09;;;;;;;7.00;6.60;;;22.10;51.30;;;;;;5072835;28;20456;-45
2022/01/30 04:23:36;;;;;;;7.63;7.33;;;22.20;51.30;;;;;;5061765;28;20968;-44
2022/01/30 04:26:03;;;;;;;7.40;7.07;;;22.20;51.20;;;;;;5064976;28;20454;-45
2022/01/30 04:28:30;;;;;;;8.10;7.70;;;22.20;51.20;;;;;;5072590;28;20459;-45
2022/01/30 04:30:58;;;;;;;7.50;7.20;;;22.10;51.10;;;;;;5072573;28;20450;-45
2022/01/30 04:33:25;;;;;;;7.60;7.30;;;22.10;51.30;;;;;;5072578;28;20443;-45
2022/01/30 04:35:53;;;;;;;8.37;7.87;;;22.20;51.10;;;;;;5060907;28;20444;-45
2022/01/30 04:38:27;;;;;;;8.23;7.93;;;22.50;51.00;;;;;;5052447;28;20472;-44
2022/01/30 04:52:25;;;;;;;7.30;7.00;;;22.60;50.00;;;;;;5072337;28;20414;-47
2022/01/30 04:57:58;;;;;;;8.73;8.30;;;22.40;50.00;;;;;;5082827;28;20530;-46
2022/01/30 05:00:51;;;;;;;7.93;7.53;;;22.50;50.20;;;;;;5069039;28;20444;-45
2022/01/30 05:06:03;;;;;;;8.20;7.90;;;22.70;49.90;;;;;;5066601;28;20800;-46
2022/01/30 05:08:31;;;;;;;8.20;7.90;;;22.90;49.60;;;;;;5107622;22;20458;-47
2022/01/30 05:10:57;;;;;;;8.40;8.03;;;22.90;49.40;;;;;;5057593;28;20444;-47
2022/01/30 05:13:30;;;;;;;8.80;8.30;;;23.00;49.50;;;;;;5068919;28;20452;-47
2022/01/30 05:15:57;;;;;;;9.20;8.70;;;22.90;49.20;;;;;;5067872;28;20892;-47
2022/01/30 05:18:26;;;;;;;8.33;7.97;;;22.90;49.30;;;;;;5068342;28;20812;-50
2022/01/30 05:20:53;;;;;;;7.20;6.97;;;22.90;49.40;;;;;;5068662;28;20470;-48
2022/01/30 05:23:20;;;;;;;8.40;8.10;;;22.80;49.20;;;;;;5068427;28;20444;-47
2022/01/30 05:25:47;;;;;;;8.40;8.10;;;22.80;49.20;;;;;;5059214;28;20452;-48
2022/01/30 05:28:14;;;;;;;9.27;8.77;;;22.80;49.20;;;;;;5048286;28;20957;-48
2022/01/30 05:30:44;;;;;;;8.17;7.87;;;22.70;49.30;;;;;;5048509;28;20459;-46
2022/01/30 05:33:12;;;;;;;8.10;7.80;;;22.80;49.50;;;;;;5048438;28;20527;-47
2022/01/30 05:35:39;;;;;;;8.50;8.17;;;23.00;49.40;;;;;;5055447;28;20443;-47
2022/01/30 05:38:06;;;;;;;8.53;8.23;;;23.20;48.90;;;;;;5068296;28;20443;-46
2022/01/30 05:40:36;;;;;;;7.43;7.13;;;23.10;48.30;;;;;;5068245;28;20498;-48
2022/01/30 05:43:03;;;;;;;8.40;8.00;;;23.20;48.30;;;;;;5066337;28;20466;-47
2022/01/30 05:45:34;;;;;;;8.10;7.73;;;23.20;48.20;;;;;;5067590;28;20832;-49
2022/01/30 05:48:07;;;;;;;7.40;7.10;;;23.10;48.20;;;;;;5068237;28;20443;-47
2022/01/30 05:50:35;;;;;;;7.90;7.50;;;23.00;48.10;;;;;;5068140;28;20805;-47
2022/01/30 05:53:02;;;;;;;8.00;7.50;;;22.90;48.20;;;;;;5053757;28;20455;-46
2022/01/30 05:55:30;;;;;;;8.30;7.90;;;22.90;48.30;;;;;;5047919;28;20448;-47
2022/01/30 05:57:57;;;;;;;8.00;7.37;;;22.80;48.30;;;;;;5047907;28;20891;-46
2022/01/30 06:00:24;;;;;;;9.00;8.70;;;22.80;48.40;;;;;;5047771;28;20471;-46
2022/01/30 06:02:51;;;;;;;8.80;8.40;;;22.70;48.50;;;;;;5058174;28;20828;-47
2022/01/30 06:05:21;;;;;;;7.93;7.60;;;22.60;48.40;;;;;;5067354;28;20451;-48
2022/01/30 06:07:51;;;;;;;7.77;7.57;;;22.50;48.60;;;;;;5062310;28;20455;-49
2022/01/30 06:10:19;;;;;;;8.23;7.93;;;22.40;48.70;;;;;;5054194;28;20483;-49
2022/01/30 06:12:46;;;;;;;8.27;7.87;;;22.40;48.90;;;;;;5042746;28;20453;-47
2022/01/30 06:15:14;;;;;;;8.70;8.30;;;22.30;48.90;;;;;;5034334;28;20448;-50
2022/01/30 06:17:41;;;;;;;8.10;7.80;;;22.20;49.00;;;;;;5034234;28;20560;-48
2022/01/30 06:20:09;;;;;;;8.57;8.27;;;22.10;49.20;;;;;;5034227;28;20833;-46
2022/01/30 06:22:38;;;;;;;8.77;8.30;;;22.00;49.30;;;;;;5043811;28;20448;-47
2022/01/30 06:25:06;;;;;;;9.07;8.67;;;22.00;49.50;;;;;;5054192;28;20444;-48
2022/01/30 06:27:33;;;;;;;8.00;7.70;;;21.90;49.50;;;;;;5054015;28;20445;-48
2022/01/30 06:30:00;;;;;;;7.93;7.63;;;21.80;49.60;;;;;;5053968;28;20468;-48
2022/01/30 06:32:27;;;;;;;7.83;7.40;;;21.70;49.60;;;;;;5045548;28;20806;-46
2022/01/30 06:34:53;;;;;;;7.57;7.23;;;21.60;49.80;;;;;;5033923;28;20449;-47
2022/01/30 06:37:20;;;;;;;8.30;8.00;;;21.50;49.90;;;;;;5033579;28;20491;-47
2022/01/30 06:39:48;;;;;;;8.67;8.27;;;21.40;50.20;;;;;;5033953;28;20492;-47
2022/01/30 06:42:15;;;;;;;9.00;8.50;;;21.40;50.20;;;;;;5039804;28;20441;-48
2022/01/30 06:44:44;;;;;;;7.33;7.10;;;21.30;50.10;;;;;;5053679;28;20451;-47
2022/01/30 06:47:11;;;;;;;7.93;7.60;;;21.20;50.30;;;;;;5053408;28;20793;-48
2022/01/30 06:49:38;;;;;;;7.97;7.77;;;21.10;50.40;;;;;;5053784;28;20470;-51
2022/01/30 06:52:09;;;;;;;8.20;7.53;;;21.10;50.60;;;;;;5048676;28;20457;-47
2022/01/30 06:54:36;;;;;;;7.53;7.20;;;21.00;50.80;;;;;;5033684;28;20472;-47
2022/01/30 06:57:05;;;;;;;7.20;6.80;;;20.90;50.90;;;;;;5033354;28;20484;-48
2022/01/30 06:59:32;;;;;;;7.43;7.13;;;20.90;51.10;;;;;;5033505;28;20965;-47
2022/01/30 07:01:59;;;;;;;8.47;8.07;;;20.80;51.30;;;;;;5037033;28;20833;-48
2022/01/30 07:04:26;;;;;;;6.43;6.13;;;20.70;51.40;;;;;;5053425;28;20471;-46
2022/01/30 07:06:52;;;;;;;7.70;7.30;;;20.70;51.50;;;;;;5053037;28;20447;-49
2022/01/30 07:09:19;;;;;;;8.20;7.87;;;20.60;51.50;;;;;;5053121;28;20480;-48
2022/01/30 07:11:46;;;;;;;6.83;6.53;;;20.50;51.60;;;;;;5051336;28;20451;-47
2022/01/30 07:14:14;;;;;;;7.30;7.10;;;20.50;51.50;;;;;;5033328;28;20448;-46
2022/01/30 07:16:41;;;;;;;7.40;7.10;;;20.40;52.10;;;;;;5034120;28;20846;-46
2022/01/30 07:19:08;;;;;;;7.27;6.57;;;20.40;52.20;;;;;;5032423;28;20504;-51
2022/01/30 07:21:34;;;;;;;6.60;6.23;;;20.30;52.40;;;;;;5050029;28;20445;-46
2022/01/30 07:24:01;;;;;;;7.77;7.47;;;20.30;53.10;;;;;;5033237;28;20453;-48
2022/01/30 07:26:28;;;;;;;6.80;6.47;;;20.30;53.30;;;;;;5032775;28;20449;-48
2022/01/30 07:28:55;;;;;;;6.57;6.27;;;20.80;53.90;;;;;;5033296;28;20468;-49
2022/01/30 07:31:24;;;;;;;6.80;6.57;;;21.20;53.20;;;;;;5033078;28;20449;-46
2022/01/30 07:33:52;;;;;;;7.30;7.00;;;21.40;52.90;;;;;;5052494;28;20954;-46
2022/01/30 07:36:19;;;;;;;6.73;6.43;;;21.60;52.70;;;;;;5052301;28;20487;-46
2022/01/30 07:38:46;;;;;;;7.27;6.97;;;21.70;52.20;;;;;;5053185;28;20478;-48
2022/01/30 07:41:13;;;;;;;8.07;7.67;;;22.20;52.20;;;;;;5052881;28;20452;-46
2022/01/30 07:43:40;;;;;;;7.07;6.77;;;22.50;51.40;;;;;;5035402;28;20449;-46
2022/01/30 07:46:07;;;;;;;5.15;4.95;;;22.60;50.80;;;;;;5031989;28;20433;-47
2022/01/30 07:48:35;;;;;;;6.90;6.40;;;22.60;50.00;;;;;;5032582;28;20563;-46
2022/01/30 07:51:02;;;;;;;7.00;6.70;;;22.70;50.10;;;;;;5032570;28;20206;-47
2022/01/30 07:53:29;;;;;;;6.70;6.40;;;22.70;50.00;;;;;;5048275;28;20452;-46
2022/01/30 07:55:56;;;;;;;6.70;6.50;;;22.70;50.10;;;;;;5052485;28;20467;-48
2022/01/30 07:58:23;;;;;;;6.87;6.57;;;22.70;50.30;;;;;;5052371;28;20506;-46
2022/01/30 08:00:50;;;;;;;5.63;5.53;;;22.70;50.30;;;;;;5052485;28;20480;-45
2022/01/30 08:03:17;;;;;;;5.73;5.40;;;22.70;50.20;;;;;;5038367;28;20834;-46
2022/01/30 08:05:45;;;;;;;5.73;5.53;;;22.60;50.20;;;;;;5032322;28;20453;-44
2022/01/30 08:08:12;;;;;;;5.60;5.40;;;22.60;50.30;;;;;;5032248;28;20441;-46
2022/01/30 08:10:39;;;;;;;4.10;3.90;;;22.60;50.00;;;;;;5031184;28;20780;-46
2022/01/30 08:13:06;;;;;;;6.97;6.67;;;22.50;49.90;;;;;;5044193;28;20216;-45
2022/01/30 08:15:33;;;;;;;6.20;5.90;;;22.40;49.90;;;;;;5052038;28;20452;-47
2022/01/30 08:18:00;;;;;;;5.90;5.60;;;22.40;50.10;;;;;;5051876;28;20570;-46
2022/01/30 08:20:27;;;;;;;6.70;6.40;;;22.40;50.20;;;;;;5052199;28;20464;-47
2022/01/30 08:22:57;;;;;;;6.50;6.10;;;22.40;50.20;;;;;;5041652;28;20536;-47
2022/01/30 08:25:25;;;;;;;6.43;5.97;;;22.30;49.90;;;;;;5031891;28;20858;-47
2022/01/30 08:27:54;;;;;;;6.57;6.27;;;22.20;49.90;;;;;;5033038;28;20918;-46
2022/01/30 08:30:21;;;;;;;6.60;6.30;;;22.20;50.40;;;;;;5031545;28;20476;-46
2022/01/30 08:32:50;;;;;;;5.50;5.20;;;22.10;50.30;;;;;;5031649;28;20473;-49
2022/01/30 08:35:18;;;;;;;6.97;6.67;;;22.10;50.20;;;;;;5051676;28;20252;-47
2022/01/30 08:37:45;;;;;;;6.40;6.20;;;22.10;50.40;;;;;;5051658;28;20487;-48
2022/01/30 08:40:17;;;;;;;6.73;6.23;;;22.10;50.30;;;;;;5051770;28;20479;-47
2022/01/30 08:42:44;;;;;;;6.90;6.50;;;22.00;50.00;;;;;;5038137;28;20488;-50
2022/01/30 08:45:13;;;;;;;6.60;6.20;;;21.90;50.50;;;;;;5032135;28;20441;-49
2022/01/30 08:47:41;;;;;;;7.50;7.00;;;21.90;50.50;;;;;;5032085;28;20442;-46
2022/01/30 08:50:09;;;;;;;5.88;5.47;;;21.80;50.80;;;;;;5030476;28;20448;-49
2022/01/30 08:52:36;;;;;;;6.83;6.53;;;21.70;50.50;;;;;;5033000;28;20206;-46
2022/01/30 08:55:04;;;;;;;8.43;7.87;;;21.60;50.30;;;;;;5031940;28;20452;-46
2022/01/30 08:57:32;;;;;;;7.50;7.13;;;21.50;50.30;;;;;;5031896;28;20805;-46
2022/01/30 08:59:59;;;;;;;7.57;7.27;;;21.40;50.40;;;;;;5031986;28;20832;-46
2022/01/30 09:02:26;;;;;;;6.70;6.40;;;21.40;50.80;;;;;;5041820;28;20480;-45
2022/01/30 09:04:53;;;;;;;8.53;7.80;;;21.50;51.20;;;;;;5032000;28;20445;-46
2022/01/30 09:07:20;;;;;;;6.80;6.60;;;21.50;51.20;;;;;;5031072;28;20809;-48
2022/01/30 09:09:47;;;;;;;7.70;7.40;;;21.60;51.40;;;;;;5031737;28;20472;-46
2022/01/30 09:12:14;;;;;;;7.53;7.03;;;21.80;51.50;;;;;;5031720;28;20808;-46
2022/01/30 09:14:43;;;;;;;6.40;5.90;;;21.90;51.20;;;;;;5032014;28;20452;-47
2022/01/30 09:17:13;;;;;;;6.20;5.80;;;21.90;50.90;;;;;;5048657;28;20472;-49
2022/01/30 09:19:41;;;;;;;6.97;6.67;;;22.10;50.80;;;;;;5051498;28;20479;-47
2022/01/30 09:22:08;;;;;;;6.63;6.30;;;22.30;50.60;;;;;;5051501;28;20452;-46
2022/01/30 09:24:36;;;;;;;6.90;6.23;;;22.40;50.50;;;;;;5051424;28;20937;-47
2022/01/30 09:27:03;;;;;;;6.40;6.10;;;22.50;50.50;;;;;;5035119;28;20456;-48
2022/01/30 09:29:30;;;;;;;7.40;6.90;;;22.50;50.20;;;;;;5031535;28;20534;-46
2022/01/30 09:31:58;;;;;;;6.90;6.53;;;22.40;50.10;;;;;;5031361;28;20505;-46
2022/01/30 09:34:25;;;;;;;6.77;6.30;;;22.40;49.70;;;;;;5030532;28;20459;-47
2022/01/30 09:36:52;;;;;;;7.23;6.77;;;22.40;49.50;;;;;;5044002;28;20451;-45
2022/01/30 09:39:19;;;;;;;6.87;6.67;;;22.40;49.70;;;;;;5050430;28;20464;-46
2022/01/30 09:41:49;;;;;;;6.90;6.60;;;22.40;49.50;;;;;;5050742;28;20483;-48
2022/01/30 09:44:17;;;;;;;7.30;6.60;;;22.40;49.40;;;;;;5054143;28;20452;-46
2022/01/30 09:46:45;;;;;;;7.87;7.47;;;22.40;49.30;;;;;;5042182;28;20452;-46
2022/01/30 09:49:14;;;;;;;6.37;5.90;;;22.40;49.30;;;;;;5035046;28;20464;-47
2022/01/30 09:51:42;;;;;;;8.00;7.50;;;22.20;49.20;;;;;;5034786;28;20449;-48
2022/01/30 09:54:09;;;;;;;6.83;6.50;;;22.10;49.10;;;;;;5034680;28;21142;-49
2022/01/30 09:56:36;;;;;;;6.30;6.07;;;22.00;49.30;;;;;;5045082;28;20448;-46
2022/01/30 09:59:04;;;;;;;7.53;7.20;;;22.00;49.70;;;;;;5054314;28;20832;-48
2022/01/30 10:01:33;;;;;;;6.50;6.13;;;21.90;49.50;;;;;;5054567;28;20447;-46
2022/01/30 10:04:01;;;;;;;6.60;6.30;;;21.90;50.20;;;;;;5054029;28;20451;-48
2022/01/30 10:06:33;;;;;;;6.47;6.00;;;21.90;50.00;;;;;;5043368;28;20458;-48
2022/01/30 10:09:09;;;;;;;7.43;7.03;;;21.90;49.70;;;;;;5033534;28;20551;-47
2022/01/30 10:11:48;;;;;;;7.20;6.50;;;21.90;49.70;;;;;;5034640;28;20531;-48
2022/01/30 10:14:16;;;;;;;7.27;6.80;;;21.90;49.60;;;;;;5033427;28;20543;-49
2022/01/30 10:16:45;;;;;;;6.80;6.50;;;22.00;49.60;;;;;;5043920;28;20444;-48
2022/01/30 10:19:17;;;;;;;7.27;6.93;;;22.00;48.90;;;;;;5053875;28;20488;-50
2022/01/30 10:21:46;;;;;;;7.57;7.17;;;22.10;49.10;;;;;;5054340;28;20448;-54
2022/01/30 10:24:31;;;;;;;7.63;7.13;;;22.30;48.90;;;;;;5054327;28;20452;-46
2022/01/30 10:27:02;;;;;;;6.20;6.00;;;22.40;48.50;;;;;;5034520;28;20445;-48
2022/01/30 10:29:31;;;;;;;6.80;6.40;;;22.50;48.60;;;;;;5034292;28;20507;-47
2022/01/30 10:32:03;;;;;;;7.73;7.13;;;22.40;48.60;;;;;;5034238;28;20942;-46
2022/01/30 10:34:30;;;;;;;8.60;7.80;;;22.30;48.70;;;;;;5034458;28;20927;-47
2022/01/30 10:37:16;;;;;;;7.03;6.70;;;22.30;48.80;;;;;;5051900;28;20441;-47
2022/01/30 10:40:08;;;;;;;8.00;7.70;;;22.20;49.00;;;;;;5053928;28;20532;-49
2022/01/30 10:42:40;;;;;;;6.73;6.53;;;22.20;48.60;;;;;;5053768;28;20523;-48
2022/01/30 10:45:10;;;;;;;7.60;7.20;;;22.20;48.60;;;;;;5036695;28;20552;-47
2022/01/30 10:47:37;;;;;;;7.33;6.93;;;22.20;48.50;;;;;;5033865;28;20448;-48
2022/01/30 10:50:09;;;;;;;7.30;7.00;;;22.20;48.50;;;;;;5033976;28;20503;-49
2022/01/30 10:52:53;;;;;;;6.40;6.20;;;22.10;48.30;;;;;;5043020;28;20858;-49
2022/01/30 10:55:39;;;;;;;6.93;6.40;;;22.20;48.50;;;;;;5052599;28;20448;-47
2022/01/30 10:58:07;;;;;;;6.77;6.37;;;22.20;48.50;;;;;;5052515;28;20480;-48
2022/01/30 11:00:47;;;;;;;7.00;6.50;;;22.20;48.60;;;;;;5053375;28;20472;-50
2022/01/30 11:03:36;;;;;;;8.63;7.80;;;22.20;49.70;;;;;;5038940;28;20532;-48
2022/01/30 11:06:06;;;;;;;7.77;6.97;;;22.20;50.80;;;;;;5033497;28;20942;-48
2022/01/30 11:11:08;;;;;;;7.87;7.27;;;22.50;50.70;;;;;;5032168;28;20460;-45
2022/01/30 11:13:47;;;;;;;11.53;8.10;;;22.60;50.80;;;;;;5033253;28;20445;-46
2022/01/30 11:19:01;;;;;;;8.30;7.70;;;23.00;51.00;;;;;;5033243;28;21150;-56
2022/01/30 11:21:29;;;;;;;10.93;8.00;;;23.20;51.40;;;;;;5031533;28;20851;-46
2022/01/30 11:23:58;;;;;;;10.57;9.67;;;23.40;53.00;;;;;;5033296;28;20480;-46
2022/01/30 11:26:28;;;;;;;10.60;9.50;;;23.50;54.60;;;;;;5033238;28;20789;-46
2022/01/30 11:28:55;;;;;;;10.37;9.53;;;23.60;54.70;;;;;;5032875;28;20855;-46
2022/01/30 11:31:24;;;;;;;9.50;8.70;;;23.90;55.20;;;;;;5020861;28;20461;-45
2022/01/30 11:33:52;;;;;;;8.57;7.70;;;24.20;54.30;;;;;;5013181;28;20458;-45
2022/01/30 11:36:21;;;;;;;10.37;9.57;;;24.20;53.20;;;;;;5016179;28;20450;-45
2022/01/30 11:38:47;;;;;;;10.53;9.83;;;24.10;53.50;;;;;;5013150;28;20482;-45
2022/01/30 11:41:16;;;;;;;12.40;9.03;;;24.10;53.00;;;;;;5017519;28;20453;-46
2022/01/30 11:44:23;;;;;;;10.10;9.30;;;23.90;52.70;;;;;;5028116;28;20457;-46
2022/01/30 11:47:20;;;;;;;9.10;8.60;;;23.60;53.30;;;;;;5012606;28;20458;-45
2022/01/30 11:49:55;;;;;;;11.03;9.93;;;23.40;53.30;;;;;;5012715;28;20465;-47
2022/01/30 11:52:42;;;;;;;10.00;9.00;;;23.30;52.50;;;;;;5012905;28;20809;-45
2022/01/30 11:55:54;;;;;;;8.83;8.23;;;23.10;52.60;;;;;;5012462;28;20442;-45
2022/01/30 11:58:59;;;;;;;9.93;8.73;;;23.00;52.10;;;;;;4998026;28;20474;-45
2022/01/30 12:01:36;;;;;;;9.93;9.27;;;22.80;52.10;;;;;;5012600;28;20454;-45
2022/01/30 12:04:09;;;;;;;10.80;8.83;;;22.90;51.70;;;;;;5012625;28;20476;-46
2022/01/30 12:06:37;;;;;;;10.17;9.27;;;23.50;50.50;;;;;;5011889;28;20477;-46
2022/01/30 12:09:19;;;;;;;10.07;9.43;;;23.70;50.00;;;;;;5012392;28;20478;-45
2022/01/30 12:11:58;;;;;;;9.30;8.70;;;24.40;49.60;;;;;;5012518;28;20451;-47
2022/01/30 12:14:59;;;;;;;11.00;10.40;;;24.70;48.60;;;;;;5012473;28;20457;-45
2022/01/30 12:17:58;;;;;;;10.70;9.70;;;25.50;46.80;;;;;;5012305;28;20521;-46
2022/01/30 12:20:27;;;;;;;11.20;10.50;;;25.60;46.00;;;;;;5005692;28;20836;-45
2022/01/30 12:22:55;;;;;;;10.13;9.37;;;25.90;45.00;;;;;;5012365;28;20443;-46
2022/01/30 12:25:39;;;;;;;10.90;10.00;;;26.00;44.50;;;;;;5012169;28;20450;-49
2022/01/30 12:28:08;;;;;;;9.83;9.13;;;26.20;43.80;;;;;;5012165;28;20448;-47
2022/01/30 12:30:51;;;;;;;9.53;8.93;;;26.00;43.50;;;;;;5012427;28;20520;-48
2022/01/30 12:33:42;;;;;;;9.40;8.60;;;26.00;43.40;;;;;;5012154;28;20453;-49
2022/01/30 12:36:21;;;;;;;9.90;9.30;;;25.80;43.50;;;;;;5011927;28;20442;-45
2022/01/30 12:38:58;;;;;;;8.87;8.17;;;25.50;43.50;;;;;;5011985;28;20481;-45
2022/01/30 12:41:26;;;;;;;10.33;9.53;;;25.20;44.00;;;;;;5012036;28;20445;-45
2022/01/30 12:43:55;;;;;;;8.83;8.33;;;24.80;44.30;;;;;;5011962;28;20449;-52
2022/01/30 12:46:25;;;;;;;9.87;9.37;;;24.70;44.70;;;;;;5011771;28;20449;-45
2022/01/30 12:49:07;;;;;;;10.47;9.93;;;24.40;44.50;;;;;;5011943;28;20520;-45
2022/01/30 12:51:38;;;;;;;9.63;8.90;;;24.10;45.00;;;;;;5011963;28;20831;-46
2022/01/30 12:54:06;;;;;;;9.27;8.73;;;24.00;44.60;;;;;;5011896;28;20446;-45
2022/01/30 12:56:33;;;;;;;8.90;8.40;;;24.50;44.60;;;;;;5011797;28;20589;-46
2022/01/30 12:59:06;;;;;;;8.37;7.80;;;24.90;44.00;;;;;;5011670;28;20481;-47
2022/01/30 13:01:34;;;;;;;10.57;9.97;;;24.90;43.60;;;;;;5011851;28;20449;-46
2022/01/30 13:04:03;;;;;;;8.40;8.00;;;24.50;43.30;;;;;;5011786;28;20450;-46
2022/01/30 13:06:40;;;;;;;8.67;8.33;;;24.10;43.90;;;;;;5011696;28;20493;-46
2022/01/30 13:09:08;;;;;;;10.70;10.03;;;23.90;44.30;;;;;;5011481;28;20481;-47
2022/01/30 13:11:36;;;;;;;8.50;8.10;;;23.90;43.90;;;;;;5011764;28;20489;-47
2022/01/30 13:14:06;;;;;;;9.03;8.50;;;23.70;44.50;;;;;;5011749;28;20446;-48
2022/01/30 13:16:36;;;;;;;8.40;7.87;;;23.70;45.00;;;;;;5011581;28;20442;-46
2022/01/30 13:19:07;;;;;;;8.67;8.17;;;23.70;44.90;;;;;;5014357;28;20870;-47
2022/01/30 13:21:35;;;;;;;9.83;9.13;;;23.70;45.00;;;;;;5015435;28;20806;-45
2022/01/30 13:24:05;;;;;;;8.07;7.77;;;23.70;44.70;;;;;;5015551;28;20477;-45
2022/01/30 13:26:37;;;;;;;8.63;8.23;;;23.70;44.80;;;;;;5015340;28;20460;-45
2022/01/30 13:29:12;;;;;;;7.87;7.57;;;23.60;44.70;;;;;;5015420;28;20470;-46
2022/01/30 13:31:39;;;;;;;7.90;7.40;;;23.50;44.80;;;;;;5015552;28;20452;-47
2022/01/30 13:34:11;;;;;;;8.80;8.07;;;23.50;44.80;;;;;;5015281;28;20453;-48
2022/01/30 13:36:39;;;;;;;8.37;7.90;;;23.40;44.80;;;;;;5015115;28;20460;-47
2022/01/30 13:39:11;;;;;;;7.93;7.50;;;23.40;45.10;;;;;;5015007;28;20493;-45
2022/01/30 13:41:47;;;;;;;8.33;7.73;;;23.50;45.10;;;;;;5015211;28;20452;-45